Time;durP1;ratioP1;P1;durP2;ratioP2;P2;SDS_P1;SDS_P2;PMS_P1;PMS_P2;Temp;Humidity;BMP_temperature;BMP_pressure;BME280_temperature;BME280_humidity;BME280_pressure;Samples;Min_cycle;Max_cycle;Signal;HPM_P1;HPM_P2
2023/03/01 00:02:10;;;;;;;0.10;0.10;;;;;;;-6.15;57.94;98907.31;5023022;28;20517;-73
2023/03/01 00:04:36;;;;;;;0.57;0.17;;;;;;;-6.23;58.34;98915.44;5023735;28;20509;-73
2023/03/01 00:07:03;;;;;;;0.10;0.10;;;;;;;-6.19;58.32;98910.53;5035793;28;20178;-73
2023/03/01 00:09:30;;;;;;;0.10;0.10;;;;;;;-6.16;58.18;98920.84;5026530;28;20057;-73
2023/03/01 00:11:56;;;;;;;0.00;0.00;;;;;;;-6.23;58.05;98910.13;5025571;28;20527;-73
2023/03/01 00:14:22;;;;;;;0.10;0.10;;;;;;;-6.25;58.21;98913.97;5013023;28;20045;-70
2023/03/01 00:16:48;;;;;;;0.10;0.10;;;;;;;-6.28;58.46;98918.66;5025662;28;20042;-70
2023/03/01 00:19:16;;;;;;;0.10;0.10;;;;;;;-6.28;58.39;98901.84;5006148;28;20599;-71
2023/03/01 00:21:43;;;;;;;0.10;0.10;;;;;;;-6.27;58.34;98907.00;5025894;28;20473;-70
2023/03/01 00:24:10;;;;;;;0.10;0.10;;;;;;;-6.30;58.01;98902.06;5025538;28;20060;-70
2023/03/01 00:26:36;;;;;;;0.10;0.10;;;;;;;-6.28;57.98;98904.50;4987282;28;20084;-73
2023/03/01 00:29:03;;;;;;;0.10;0.10;;;;;;;-6.32;58.01;98903.25;5003077;28;20116;-72
2023/03/01 00:31:31;;;;;;;0.00;0.00;;;;;;;-6.37;58.25;98897.66;5005149;28;20088;-70
2023/03/01 00:33:59;;;;;;;0.10;0.10;;;;;;;-6.41;58.49;98892.69;4989362;28;20045;-70
2023/03/01 00:36:27;;;;;;;0.10;0.10;;;;;;;-6.44;58.66;98894.94;5007213;28;20052;-70
2023/03/01 00:38:53;;;;;;;0.10;0.10;;;;;;;-6.44;58.46;98892.25;4981283;28;20457;-71
2023/03/01 00:41:22;;;;;;;0.10;0.10;;;;;;;-6.49;58.73;98887.50;5007147;28;20042;-69
2023/03/01 00:43:49;;;;;;;0.10;0.10;;;;;;;-6.51;58.61;98896.66;5019507;28;20432;-69
2023/03/01 00:46:21;;;;;;;0.10;0.10;;;;;;;-6.53;58.70;98896.88;5018235;28;20053;-69
2023/03/01 00:48:47;;;;;;;0.10;0.10;;;;;;;-6.57;58.93;98893.75;5022758;28;20049;-69
2023/03/01 00:51:16;;;;;;;0.10;0.10;;;;;;;-6.53;58.54;98896.88;5021528;28;20467;-70
2023/03/01 00:53:42;;;;;;;0.10;0.10;;;;;;;-6.47;58.21;98901.44;5022144;28;20052;-68
2023/03/01 00:56:11;;;;;;;0.10;0.10;;;;;;;-6.50;58.08;98904.47;5020691;28;20054;-70
2023/03/01 00:58:39;;;;;;;0.10;0.10;;;;;;;-6.50;58.17;98895.66;4987502;28;20133;-69
2023/03/01 01:01:16;;;;;;;0.10;0.10;;;;;;;-6.54;58.67;98892.56;5002009;28;20714;-69
2023/03/01 01:03:42;;;;;;;;;;;;;;;-6.58;58.61;98896.56;4999514;28;20068;-69
2023/03/01 01:06:13;;;;;;;0.20;0.20;;;;;;;-6.61;58.64;98894.28;4965073;28;20322;-70
2023/03/01 01:08:40;;;;;;;0.10;0.10;;;;;;;-6.59;58.62;98910.88;4966319;28;20058;-70
2023/03/01 01:11:08;;;;;;;0.10;0.10;;;;;;;-6.58;58.64;98897.41;5013793;28;20505;-69
2023/03/01 01:13:34;;;;;;;0.10;0.10;;;;;;;-6.54;58.29;98889.91;5005530;28;20096;-69
2023/03/01 01:16:02;;;;;;;0.10;0.10;;;;;;;-6.51;58.22;98897.50;5042542;28;20099;-69
2023/03/01 01:18:29;;;;;;;0.10;0.10;;;;;;;-6.52;58.10;98893.19;5019758;28;20053;-69
2023/03/01 01:20:55;;;;;;;0.10;0.10;;;;;;;-6.59;58.50;98898.44;5004681;28;20049;-69
2023/03/01 01:23:21;;;;;;;0.10;0.10;;;;;;;-6.64;58.67;98884.03;5022383;28;20421;-69
2023/03/01 01:25:47;;;;;;;0.10;0.10;;;;;;;-6.64;58.91;98887.50;5023523;28;20626;-70
2023/03/01 01:28:13;;;;;;;0.10;0.10;;;;;;;-6.67;58.67;98871.09;5020045;28;20053;-69
2023/03/01 01:30:39;;;;;;;0.10;0.10;;;;;;;-6.62;58.89;98884.66;5024115;28;20076;-70
2023/03/01 01:33:06;;;;;;;0.10;0.10;;;;;;;-6.66;59.22;98897.50;5005165;28;20054;-69
2023/03/01 01:35:32;;;;;;;0.10;0.10;;;;;;;-6.70;59.59;98893.56;5039038;28;20508;-69
2023/03/01 01:37:58;;;;;;;0.10;0.10;;;;;;;-6.72;59.50;98895.59;5037108;28;20136;-69
2023/03/01 01:40:25;;;;;;;0.10;0.10;;;;;;;-6.74;59.85;98892.31;5021995;28;20053;-69
2023/03/01 01:42:51;;;;;;;0.10;0.10;;;;;;;-6.72;59.71;98896.41;5020903;28;20053;-69
2023/03/01 01:45:34;;;;;;;0.03;0.03;;;;;;;-6.77;59.76;98882.03;5022777;28;20060;-69
2023/03/01 01:48:04;;;;;;;0.00;0.00;;;;;;;-6.80;60.07;98898.34;5020063;28;20056;-69
2023/03/01 01:50:38;;;;;;;0.10;0.10;;;;;;;-6.80;60.19;98893.84;5008951;28;20051;-69
2023/03/01 01:53:09;;;;;;;0.10;0.10;;;;;;;-6.82;60.13;98881.75;5020475;28;20572;-69
2023/03/01 01:55:39;;;;;;;0.10;0.10;;;;;;;-6.75;60.34;98902.09;5021291;28;20048;-71
2023/03/01 01:58:09;;;;;;;0.10;0.10;;;;;;;-6.67;60.20;98895.84;5023603;28;20049;-72
2023/03/01 02:00:38;;;;;;;0.10;0.10;;;;;;;-6.62;59.98;98901.47;5021992;28;20456;-72
2023/03/01 02:03:08;;;;;;;0.20;0.20;;;;;;;-6.48;59.85;98890.97;5024336;28;20049;-72
2023/03/01 02:05:43;;;;;;;0.10;0.10;;;;;;;-6.26;59.54;98883.84;5024378;28;20049;-72
2023/03/01 02:08:11;;;;;;;0.10;0.10;;;;;;;-6.16;58.93;98886.25;4985233;28;20053;-71
2023/03/01 02:10:38;;;;;;;0.10;0.10;;;;;;;-6.10;58.63;98887.28;5029785;28;20310;-72
2023/03/01 02:13:04;;;;;;;0.10;0.10;;;;;;;-6.08;58.47;98885.28;5026358;28;20492;-73
2023/03/01 02:15:33;;;;;;;0.10;0.10;;;;;;;-6.15;58.85;98890.53;5024026;28;20053;-73
2023/03/01 02:18:00;;;;;;;0.00;0.00;;;;;;;-6.21;58.60;98896.59;5042179;28;20465;-72
2023/03/01 02:20:33;;;;;;;0.10;0.10;;;;;;;-6.26;59.21;98894.50;5039978;28;20500;-73
2023/03/01 02:23:01;;;;;;;0.10;0.10;;;;;;;-6.32;59.02;98887.28;5043227;28;20049;-72
2023/03/01 02:25:35;;;;;;;0.10;0.10;;;;;;;-6.44;59.85;98879.78;5007989;28;20053;-72
2023/03/01 02:28:08;;;;;;;0.30;0.10;;;;;;;-6.53;59.81;98893.38;5041013;28;20098;-73
2023/03/01 02:30:36;;;;;;;0.10;0.10;;;;;;;-6.57;60.27;98883.09;5026069;28;20075;-72
2023/03/01 02:33:03;;;;;;;0.20;0.20;;;;;;;-6.60;60.26;98894.13;5022423;28;20053;-72
2023/03/01 02:35:33;;;;;;;0.10;0.10;;;;;;;-6.66;60.21;98891.38;5045204;28;20508;-73
2023/03/01 02:38:03;;;;;;;0.17;0.17;;;;;;;-6.69;60.24;98900.53;5043948;28;20056;-72
2023/03/01 02:40:30;;;;;;;0.20;0.20;;;;;;;-6.78;60.61;98904.31;5044028;28;20052;-72
2023/03/01 02:42:58;;;;;;;0.00;0.00;;;;;;;-6.76;60.54;98907.63;5041913;28;20083;-69
2023/03/01 02:45:26;;;;;;;0.10;0.10;;;;;;;-6.84;61.02;98903.22;5039250;28;20147;-69
2023/03/01 02:47:56;;;;;;;0.22;0.20;;;;;;;-6.86;61.14;98897.25;5041814;28;20588;-69
2023/03/01 02:50:45;;;;;;;0.10;0.10;;;;;;;-6.89;61.38;98910.91;5023709;28;20045;-69
2023/03/01 02:53:16;;;;;;;0.20;0.20;;;;;;;-6.89;61.53;98893.13;5020031;28;20114;-69
2023/03/01 02:55:43;;;;;;;0.20;0.20;;;;;;;-6.91;61.48;98896.97;5009810;28;20062;-69
2023/03/01 02:58:10;;;;;;;0.08;0.08;;;;;;;-6.89;61.54;98892.28;5009317;28;20049;-69
2023/03/01 03:00:45;;;;;;;0.00;0.00;;;;;;;-6.89;61.73;98902.91;4993259;28;20163;-69
2023/03/01 03:03:16;;;;;;;0.10;0.10;;;;;;;-7.04;61.83;98882.47;4996896;28;20050;-69
2023/03/01 03:05:43;;;;;;;0.10;0.10;;;;;;;-6.99;62.11;98897.88;5045939;28;20048;-69
2023/03/01 03:08:10;;;;;;;0.10;0.10;;;;;;;-7.03;61.88;98908.03;4995558;28;20045;-69
2023/03/01 03:10:39;;;;;;;0.10;0.10;;;;;;;-7.00;62.34;98901.56;5046371;28;20045;-69
2023/03/01 03:13:08;;;;;;;0.00;0.00;;;;;;;-7.02;61.80;98888.47;5028914;28;20044;-69
2023/03/01 03:15:35;;;;;;;0.10;0.10;;;;;;;-6.92;61.77;98888.19;5043854;28;20116;-71
2023/03/01 03:18:03;;;;;;;;;;;;;;;-6.98;61.72;98905.69;5047532;28;20072;-69
2023/03/01 03:20:32;;;;;;;0.10;0.10;;;;;;;-7.06;61.99;98912.91;5029749;28;19925;-70
2023/03/01 03:22:59;;;;;;;0.20;0.20;;;;;;;-7.12;62.55;98906.50;5049189;28;20065;-69
2023/03/01 03:25:26;;;;;;;0.00;0.00;;;;;;;-7.18;62.57;98904.53;5044080;28;20049;-69
2023/03/01 03:27:56;;;;;;;0.10;0.10;;;;;;;-7.19;62.86;98906.41;5029148;28;20057;-69
2023/03/01 03:30:25;;;;;;;0.07;0.07;;;;;;;-7.17;63.05;98909.69;5044863;28;20099;-69
2023/03/01 03:32:54;;;;;;;0.07;0.07;;;;;;;-7.14;62.83;98906.66;5028603;28;20111;-69
2023/03/01 03:35:24;;;;;;;0.10;0.10;;;;;;;-7.14;62.86;98900.53;5028056;28;20049;-70
2023/03/01 03:38:01;;;;;;;0.10;0.10;;;;;;;-7.12;62.81;98909.97;5044849;28;20044;-70
2023/03/01 03:40:29;;;;;;;0.10;0.10;;;;;;;-7.17;62.78;98914.19;5028338;28;20049;-69
2023/03/01 03:42:55;;;;;;;0.10;0.10;;;;;;;-7.26;62.95;98916.91;5027048;28;20555;-69
2023/03/01 03:45:22;;;;;;;0.10;0.10;;;;;;;-7.26;63.17;98914.25;5045097;28;20068;-70
2023/03/01 03:47:48;;;;;;;0.10;0.10;;;;;;;-7.23;63.42;98925.53;5024550;28;20049;-69
2023/03/01 03:50:16;;;;;;;0.10;0.10;;;;;;;-7.24;63.20;98923.88;5012296;28;20194;-69
2023/03/01 03:52:42;;;;;;;0.10;0.10;;;;;;;-7.27;63.50;98928.56;5027901;28;20060;-72
2023/03/01 03:55:12;;;;;;;0.10;0.10;;;;;;;-7.32;63.90;98936.25;5044849;28;20146;-72
2023/03/01 03:57:39;;;;;;;0.10;0.10;;;;;;;-7.30;63.74;98928.91;5043313;28;20045;-72
2023/03/01 04:00:12;;;;;;;0.10;0.10;;;;;;;-7.32;63.90;98927.44;5008680;28;20037;-69
2023/03/01 04:02:40;;;;;;;0.20;0.20;;;;;;;-7.38;63.82;98928.97;5033655;28;20512;-69
2023/03/01 04:05:08;;;;;;;0.10;0.10;;;;;;;-7.39;64.30;98924.69;5018731;28;20048;-72
2023/03/01 04:07:34;;;;;;;0.10;0.10;;;;;;;-7.38;64.22;98928.97;5013136;28;20379;-72
2023/03/01 04:10:00;;;;;;;0.20;0.20;;;;;;;-7.38;64.32;98923.66;5014352;28;20053;-72
2023/03/01 04:12:27;;;;;;;0.10;0.10;;;;;;;-7.40;64.73;98925.69;5037244;28;20464;-72
2023/03/01 04:14:53;;;;;;;0.10;0.10;;;;;;;-7.32;64.31;98930.09;5035300;28;20041;-69
2023/03/01 04:17:20;;;;;;;0.10;0.10;;;;;;;-7.29;64.03;98938.53;5003287;28;20446;-69
2023/03/01 04:19:48;;;;;;;0.10;0.10;;;;;;;-7.31;63.80;98913.16;5035922;28;20053;-69
2023/03/01 04:22:18;;;;;;;0.10;0.10;;;;;;;-7.13;63.56;98939.41;5015188;28;20054;-69
2023/03/01 04:24:44;;;;;;;0.10;0.10;;;;;;;-7.12;63.36;98943.69;5031715;28;20198;-69
2023/03/01 04:27:10;;;;;;;0.10;0.10;;;;;;;-7.16;63.32;98945.06;5020228;28;20045;-69
2023/03/01 04:29:38;;;;;;;0.10;0.10;;;;;;;-7.18;63.32;98941.75;5047167;28;20041;-70
2023/03/01 04:32:04;;;;;;;;;;;;;;;-7.17;63.92;98951.41;5043148;28;20033;-71
2023/03/01 04:34:30;;;;;;;0.10;0.10;;;;;;;-7.16;63.78;98953.06;5025717;28;19925;-72
2023/03/01 04:36:57;;;;;;;0.10;0.10;;;;;;;-7.20;64.01;98952.56;5010406;28;20045;-69
2023/03/01 04:39:23;;;;;;;0.10;0.10;;;;;;;-7.15;63.96;98954.69;5006705;28;20053;-70
2023/03/01 04:41:49;;;;;;;0.10;0.10;;;;;;;-7.13;63.89;98936.75;5016961;28;20045;-70
2023/03/01 04:44:15;;;;;;;0.00;0.00;;;;;;;-7.13;63.89;98958.00;5008521;28;20068;-69
2023/03/01 04:46:42;;;;;;;0.10;0.10;;;;;;;-7.10;63.89;98949.66;5036454;28;20115;-69
2023/03/01 04:49:08;;;;;;;0.10;0.10;;;;;;;-7.04;64.15;98950.78;5045868;28;20065;-69
2023/03/01 04:51:34;;;;;;;0.10;0.10;;;;;;;-7.04;63.88;98946.25;5039307;28;20648;-69
2023/03/01 04:54:00;;;;;;;0.10;0.10;;;;;;;-6.95;63.89;98952.31;5019510;28;20520;-69
2023/03/01 04:56:27;;;;;;;0.10;0.10;;;;;;;-6.91;63.94;98950.97;4684711;28;10000067;-69
2023/03/01 04:58:53;;;;;;;0.10;0.10;;;;;;;-6.91;64.06;98961.59;5033577;28;20118;-70
2023/03/01 05:01:20;;;;;;;0.10;0.10;;;;;;;-6.85;63.75;98960.06;5034615;28;20083;-69
2023/03/01 05:03:49;;;;;;;0.10;0.10;;;;;;;-6.88;63.54;98947.94;5012572;28;20033;-71
2023/03/01 05:06:20;;;;;;;0.17;0.17;;;;;;;-6.84;63.58;98956.38;5030805;28;20055;-70
2023/03/01 05:08:46;;;;;;;0.10;0.10;;;;;;;-6.73;63.52;98966.56;5009075;28;20518;-69
2023/03/01 05:11:12;;;;;;;0.10;0.10;;;;;;;-6.68;63.11;98962.53;5005829;28;20042;-70
2023/03/01 05:13:39;;;;;;;1.33;0.20;;;;;;;-6.66;63.11;98971.97;5012497;28;20570;-69
2023/03/01 05:16:10;;;;;;;0.10;0.10;;;;;;;-6.61;62.95;98971.44;4992938;28;20461;-69
2023/03/01 05:18:37;;;;;;;0.10;0.10;;;;;;;-6.66;63.02;98953.34;5011179;28;20522;-69
2023/03/01 05:21:07;;;;;;;0.10;0.10;;;;;;;-6.56;62.85;98971.69;4993277;28;20057;-69
2023/03/01 05:23:34;;;;;;;0.10;0.10;;;;;;;-6.49;63.08;98980.59;5013477;28;20153;-69
2023/03/01 05:26:03;;;;;;;0.20;0.20;;;;;;;-6.45;62.46;98975.75;4981177;28;20045;-69
2023/03/01 05:28:30;;;;;;;0.10;0.10;;;;;;;-6.17;62.26;98991.03;5012736;28;20037;-69
2023/03/01 05:30:57;;;;;;;0.40;0.30;;;;;;;-5.93;61.41;98989.88;5002974;28;20056;-72
2023/03/01 05:33:24;;;;;;;0.10;0.10;;;;;;;-5.74;60.84;98982.28;5025587;28;20049;-71
2023/03/01 05:35:51;;;;;;;0.10;0.10;;;;;;;-5.63;60.36;98988.97;5020638;28;20130;-72
2023/03/01 05:38:20;;;;;;;0.20;0.20;;;;;;;-5.55;59.90;98984.34;5022314;28;20303;-71
2023/03/01 05:40:47;;;;;;;0.17;0.17;;;;;;;-5.51;59.93;98994.59;5022803;28;20042;-71
2023/03/01 05:43:15;;;;;;;0.10;0.10;;;;;;;-5.62;59.88;98980.78;5024189;28;20136;-72
2023/03/01 05:45:42;;;;;;;0.10;0.10;;;;;;;-5.50;59.90;99002.41;5022577;28;20430;-72
2023/03/01 05:48:10;;;;;;;0.10;0.10;;;;;;;-5.48;59.51;99010.19;5003916;28;20054;-72
2023/03/01 05:50:39;;;;;;;0.13;0.13;;;;;;;-5.52;59.68;99000.94;4997408;28;20056;-71
2023/03/01 05:53:08;;;;;;;0.17;0.17;;;;;;;-5.53;59.75;98999.31;4978514;28;20041;-68
2023/03/01 05:55:36;;;;;;;0.10;0.10;;;;;;;-5.46;59.89;98998.34;5000856;28;20501;-69
2023/03/01 05:58:04;;;;;;;0.10;0.10;;;;;;;-5.44;59.73;99000.84;5012209;28;20049;-69
2023/03/01 06:00:31;;;;;;;0.10;0.10;;;;;;;-5.37;59.90;99015.03;5014824;28;20059;-73
2023/03/01 06:02:58;;;;;;;0.10;0.10;;;;;;;-5.38;59.44;99010.72;5014580;28;20049;-72
2023/03/01 06:05:25;;;;;;;0.13;0.13;;;;;;;-5.43;59.24;99000.63;5018278;28;20248;-72
2023/03/01 06:07:52;;;;;;;0.10;0.10;;;;;;;-5.27;59.50;99018.22;5022084;28;20058;-73
2023/03/01 06:10:21;;;;;;;0.10;0.10;;;;;;;-5.21;59.17;99007.81;5040543;28;20097;-73
2023/03/01 06:12:48;;;;;;;0.10;0.10;;;;;;;-5.18;58.86;99007.41;5035599;28;20508;-72
2023/03/01 06:15:16;;;;;;;0.32;0.20;;;;;;;-5.22;58.85;99003.50;5025306;28;20080;-72
2023/03/01 06:17:43;;;;;;;1.35;0.20;;;;;;;-5.17;59.34;99017.91;5037141;28;20048;-72
2023/03/01 06:20:12;;;;;;;;;;;;;;;-5.02;59.24;99017.81;5019813;28;20091;-69
2023/03/01 06:22:39;;;;;;;0.20;0.20;;;;;;;-4.94;58.74;99006.19;5028837;28;19924;-69
2023/03/01 06:25:06;;;;;;;0.17;0.17;;;;;;;-4.85;58.59;99014.88;5021456;28;20053;-69
2023/03/01 06:27:32;;;;;;;0.10;0.10;;;;;;;-4.76;58.30;99024.38;5009453;28;20636;-69
2023/03/01 06:30:00;;;;;;;0.10;0.10;;;;;;;-4.88;58.22;99024.09;5043059;28;20531;-69
2023/03/01 06:32:26;;;;;;;0.20;0.20;;;;;;;-4.93;58.30;99036.34;5012398;28;20088;-72
2023/03/01 06:34:52;;;;;;;0.20;0.20;;;;;;;-4.86;58.60;99023.88;5017194;28;20053;-72
2023/03/01 06:37:18;;;;;;;0.20;0.20;;;;;;;-4.62;57.93;99021.81;5022870;28;20613;-72
2023/03/01 06:39:44;;;;;;;0.20;0.20;;;;;;;-4.58;57.75;99023.06;5040196;28;20045;-68
2023/03/01 06:42:10;;;;;;;0.57;0.20;;;;;;;-4.61;57.74;99026.13;5013120;28;20575;-72
2023/03/01 06:44:37;;;;;;;0.20;0.20;;;;;;;-4.56;57.62;99027.19;5044175;28;20135;-69
2023/03/01 06:47:04;;;;;;;0.20;0.20;;;;;;;-4.41;57.48;99029.75;5015133;28;20513;-69
2023/03/01 06:49:31;;;;;;;0.30;0.22;;;;;;;-4.33;57.34;99042.13;5021943;28;20051;-68
2023/03/01 06:51:57;;;;;;;0.17;0.17;;;;;;;-4.24;57.21;99040.09;5043964;28;20513;-71
2023/03/01 06:54:23;;;;;;;0.10;0.10;;;;;;;-4.26;56.61;99031.47;5025270;28;20060;-72
2023/03/01 06:56:50;;;;;;;0.20;0.20;;;;;;;-4.36;56.55;99034.50;5038178;28;20162;-69
2023/03/01 06:59:17;;;;;;;0.20;0.20;;;;;;;-4.29;56.87;99034.53;5045157;28;20048;-69
2023/03/01 07:01:43;;;;;;;0.20;0.20;;;;;;;-4.23;56.80;99039.09;5030518;28;20147;-72
2023/03/01 07:04:11;;;;;;;0.20;0.20;;;;;;;-4.39;56.75;99034.91;5046526;28;20049;-72
2023/03/01 07:06:37;;;;;;;;;;;;;;;-4.53;56.84;99052.66;5043538;28;20071;-69
2023/03/01 07:09:03;;;;;;;0.20;0.20;;;;;;;-4.48;56.74;99036.91;4998870;28;19999;-69
2023/03/01 07:11:29;;;;;;;0.20;0.20;;;;;;;-4.46;57.15;99050.03;5017885;28;20643;-69
2023/03/01 07:13:55;;;;;;;0.43;0.20;;;;;;;-4.33;57.18;99054.66;5039806;28;20604;-69
2023/03/01 07:16:22;;;;;;;0.17;0.17;;;;;;;-4.32;56.67;99035.75;5037600;28;20054;-69
2023/03/01 07:18:48;;;;;;;0.33;0.20;;;;;;;-4.13;56.42;99060.13;5019096;28;20057;-69
2023/03/01 07:21:16;;;;;;;0.20;0.20;;;;;;;-4.04;56.48;99063.44;5026421;28;20049;-69
2023/03/01 07:23:42;;;;;;;0.20;0.20;;;;;;;-3.94;56.28;99055.88;5023402;28;20132;-69
2023/03/01 07:26:09;;;;;;;0.20;0.20;;;;;;;-3.91;56.00;99060.81;5022083;28;20057;-69
2023/03/01 07:28:38;;;;;;;0.20;0.20;;;;;;;-3.68;55.94;99067.72;5030909;28;20069;-69
2023/03/01 07:31:05;;;;;;;0.10;0.10;;;;;;;-3.46;55.30;99068.41;5020717;28;20075;-69
2023/03/01 07:33:31;;;;;;;0.20;0.20;;;;;;;-3.40;55.05;99063.28;5026659;28;20062;-69
2023/03/01 07:35:58;;;;;;;0.20;0.20;;;;;;;-3.01;54.20;99062.53;5006640;28;20064;-69
2023/03/01 07:38:25;;;;;;;0.30;0.30;;;;;;;-2.55;53.45;99060.06;5031486;28;20073;-69
2023/03/01 07:40:52;;;;;;;0.20;0.20;;;;;;;-2.03;51.71;99070.09;5030491;28;20108;-69
2023/03/01 07:43:19;;;;;;;0.20;0.20;;;;;;;-1.61;50.63;99075.94;5004330;28;20125;-73
2023/03/01 07:45:45;;;;;;;0.23;0.23;;;;;;;-1.30;49.79;99068.97;5028390;28;20061;-72
2023/03/01 07:48:11;;;;;;;0.20;0.20;;;;;;;-0.88;49.02;99065.00;5026181;28;20060;-73
2023/03/01 07:50:37;;;;;;;0.30;0.30;;;;;;;-0.51;48.16;99064.31;5018070;28;20073;-72
2023/03/01 07:53:04;;;;;;;0.30;0.30;;;;;;;0.02;47.01;99060.28;5032483;28;20049;-73
2023/03/01 07:55:31;;;;;;;0.28;0.28;;;;;;;0.40;46.16;99061.91;5032078;28;20040;-73
2023/03/01 07:57:57;;;;;;;0.30;0.30;;;;;;;0.62;45.58;99060.59;5011594;28;20103;-73
2023/03/01 08:00:23;;;;;;;0.30;0.30;;;;;;;0.97;45.21;99067.97;5043030;28;20045;-72
2023/03/01 08:02:49;;;;;;;0.20;0.20;;;;;;;1.21;44.38;99076.13;5037872;28;20045;-69
2023/03/01 08:05:16;;;;;;;0.20;0.20;;;;;;;1.10;44.16;99077.75;5025998;28;20049;-69
2023/03/01 08:07:42;;;;;;;0.20;0.20;;;;;;;1.29;44.13;99070.41;5004188;28;20053;-69
2023/03/01 08:10:10;;;;;;;0.20;0.20;;;;;;;1.15;44.14;99074.34;5045901;28;20064;-72
2023/03/01 08:12:37;;;;;;;0.28;0.28;;;;;;;0.75;45.06;99070.34;5058393;28;20061;-72
2023/03/01 08:15:04;;;;;;;0.52;0.40;;;;;;;0.87;45.24;99068.53;5058683;28;20048;-69
2023/03/01 08:17:30;;;;;;;0.35;0.30;;;;;;;0.87;45.10;99070.44;5058034;28;20577;-69
2023/03/01 08:19:56;;;;;;;0.30;0.30;;;;;;;0.81;45.31;99069.47;5048614;28;20051;-69
2023/03/01 08:22:22;;;;;;;0.20;0.20;;;;;;;1.27;44.64;99061.72;5041644;28;20072;-69
2023/03/01 08:24:48;;;;;;;0.30;0.30;;;;;;;1.11;44.37;99076.69;5025722;28;20198;-69
2023/03/01 08:27:15;;;;;;;0.20;0.20;;;;;;;1.30;44.30;99074.72;5048185;28;20047;-69
2023/03/01 08:29:43;;;;;;;0.30;0.30;;;;;;;1.70;44.27;99079.47;5061462;28;20039;-69
2023/03/01 08:32:09;;;;;;;;;;;;;;;1.97;43.24;99070.91;5029013;28;20079;-69
2023/03/01 08:34:35;;;;;;;0.20;0.20;;;;;;;1.79;42.80;99082.63;5062079;28;19931;-69
2023/03/01 08:37:02;;;;;;;0.45;0.30;;;;;;;1.88;43.07;99071.50;5057928;28;20048;-69
2023/03/01 08:39:28;;;;;;;0.20;0.20;;;;;;;2.24;42.17;99086.56;5011221;28;20044;-69
2023/03/01 08:41:54;;;;;;;0.30;0.30;;;;;;;2.40;41.65;99081.50;5049682;28;20079;-69
2023/03/01 08:44:23;;;;;;;0.30;0.30;;;;;;;2.41;41.48;99081.28;5047937;28;20045;-69
2023/03/01 08:46:52;;;;;;;0.30;0.30;;;;;;;2.12;42.39;99085.78;5050767;28;20061;-69
2023/03/01 08:49:20;;;;;;;0.30;0.30;;;;;;;2.31;42.24;99091.03;5032367;28;20044;-69
2023/03/01 08:51:47;;;;;;;0.32;0.32;;;;;;;2.58;41.36;99087.81;5027741;28;20055;-69
2023/03/01 08:54:15;;;;;;;0.30;0.30;;;;;;;2.98;40.48;99092.34;5038243;28;20054;-72
2023/03/01 08:56:42;;;;;;;0.30;0.30;;;;;;;2.90;40.10;99095.44;5002904;28;20040;-70
2023/03/01 08:59:10;;;;;;;0.30;0.30;;;;;;;3.05;40.18;99100.28;5023959;28;20223;-69
2023/03/01 09:01:36;;;;;;;0.30;0.30;;;;;;;3.54;39.30;99097.91;5054112;28;20086;-69
2023/03/01 09:04:04;;;;;;;0.30;0.30;;;;;;;4.05;39.26;99102.44;5053098;28;20090;-72
2023/03/01 09:06:31;;;;;;;0.30;0.30;;;;;;;4.27;37.99;99090.84;5028029;28;20637;-73
2023/03/01 09:08:57;;;;;;;0.30;0.30;;;;;;;4.08;38.28;99095.72;5057841;28;20065;-72
2023/03/01 09:11:23;;;;;;;0.30;0.30;;;;;;;4.10;37.80;99096.28;5028840;28;20037;-72
2023/03/01 09:13:50;;;;;;;0.30;0.30;;;;;;;4.00;37.39;99091.56;5053908;28;20040;-72
2023/03/01 09:16:17;;;;;;;0.30;0.30;;;;;;;3.83;37.72;99103.22;5042621;28;20058;-69
2023/03/01 09:18:44;;;;;;;0.30;0.30;;;;;;;3.43;38.27;99096.06;5042107;28;20057;-69
2023/03/01 09:21:13;;;;;;;0.30;0.30;;;;;;;3.25;38.60;99111.47;5042066;28;20064;-69
2023/03/01 09:23:42;;;;;;;0.30;0.30;;;;;;;2.87;39.42;99093.19;5034909;28;20048;-69
2023/03/01 09:26:10;;;;;;;0.40;0.40;;;;;;;3.49;38.77;99097.81;5039643;28;20103;-69
2023/03/01 09:28:38;;;;;;;0.40;0.40;;;;;;;4.22;36.87;99096.19;5021778;28;20073;-69
2023/03/01 09:31:05;;;;;;;0.40;0.40;;;;;;;4.26;36.38;99094.63;5024240;28;20215;-72
2023/03/01 09:33:32;;;;;;;0.40;0.40;;;;;;;4.15;36.14;99096.38;5027629;28;20052;-72
2023/03/01 09:35:59;;;;;;;0.40;0.40;;;;;;;3.93;36.42;99094.44;5032078;28;20049;-72
2023/03/01 09:38:27;;;;;;;0.40;0.40;;;;;;;4.15;36.69;99096.38;5030788;28;20143;-68
2023/03/01 09:40:53;;;;;;;0.40;0.40;;;;;;;5.01;35.28;99087.91;5025024;28;20115;-69
2023/03/01 09:43:26;;;;;;;0.30;0.30;;;;;;;5.32;34.69;99086.31;5055103;28;20047;-69
2023/03/01 09:45:55;;;;;;;0.52;0.30;;;;;;;4.83;35.08;99098.81;5042480;28;20118;-69
2023/03/01 09:48:25;;;;;;;0.40;0.40;;;;;;;3.67;36.40;99094.06;5040944;28;20143;-72
2023/03/01 09:50:52;;;;;;;0.20;0.20;;;;;;;2.57;38.38;99086.16;5020355;28;20045;-73
2023/03/01 09:53:21;;;;;;;0.20;0.20;;;;;;;1.37;40.38;99088.94;5043049;28;20053;-72
2023/03/01 09:55:55;;;;;;;0.40;0.40;;;;;;;1.31;40.87;99097.91;5057350;28;20095;-72
2023/03/01 09:58:36;;;;;;;0.20;0.20;;;;;;;1.23;41.51;99099.06;5042139;28;20059;-72
2023/03/01 10:01:10;;;;;;;0.20;0.20;;;;;;;0.58;42.55;99102.47;5023761;28;20285;-72
2023/03/01 10:03:43;;;;;;;0.20;0.20;;;;;;;-0.03;43.72;99108.50;5051271;28;20042;-72
2023/03/01 10:06:14;;;;;;;0.38;0.38;;;;;;;-0.43;44.73;99110.53;5043139;28;20513;-72
2023/03/01 10:08:43;;;;;;;0.10;0.10;;;;;;;-0.82;45.56;99114.31;5037487;28;20049;-72
2023/03/01 10:11:21;;;;;;;0.10;0.10;;;;;;;-1.04;46.54;99120.84;5019496;28;20202;-72
2023/03/01 10:13:54;;;;;;;0.20;0.20;;;;;;;-1.09;46.74;99122.53;5048053;28;20094;-72
2023/03/01 10:16:26;;;;;;;0.20;0.20;;;;;;;-1.00;46.97;99124.75;5022651;28;20520;-72
2023/03/01 10:18:57;;;;;;;0.20;0.20;;;;;;;-0.83;47.19;99129.59;5059498;28;20048;-72
2023/03/01 10:21:23;;;;;;;0.30;0.30;;;;;;;-0.36;46.60;99123.06;5046883;28;20044;-72
2023/03/01 10:23:51;;;;;;;0.40;0.40;;;;;;;0.11;45.55;99122.66;5051728;28;20040;-72
2023/03/01 10:26:32;;;;;;;0.80;0.80;;;;;;;1.39;43.17;99121.84;5037619;28;20052;-72
2023/03/01 10:29:03;;;;;;;0.50;0.50;;;;;;;1.62;41.90;99114.03;5025026;28;20709;-72
2023/03/01 10:31:38;;;;;;;0.10;0.10;;;;;;;1.28;42.48;99136.09;5030837;28;20049;-69
2023/03/01 10:34:10;;;;;;;0.20;0.20;;;;;;;0.27;44.18;99115.84;5051818;28;20081;-69
2023/03/01 10:36:39;;;;;;;0.20;0.20;;;;;;;-0.39;45.80;99124.34;5018924;28;20120;-69
2023/03/01 10:39:13;;;;;;;0.10;0.10;;;;;;;-0.77;47.31;99115.31;5051461;28;20163;-69
2023/03/01 10:41:53;;;;;;;0.10;0.10;;;;;;;-0.81;47.85;99145.50;5046758;28;20036;-72
2023/03/01 10:44:37;;;;;;;0.20;0.20;;;;;;;-0.97;47.45;99138.78;5042815;28;20511;-72
2023/03/01 10:47:03;;;;;;;0.20;0.20;;;;;;;-1.19;47.98;99131.06;5044003;28;20222;-72
2023/03/01 10:49:30;;;;;;;0.20;0.20;;;;;;;-1.32;48.00;99130.06;5040012;28;20044;-72
2023/03/01 10:52:11;;;;;;;0.20;0.20;;;;;;;-1.48;49.00;99131.38;5026767;28;20049;-72
2023/03/01 10:54:37;;;;;;;0.20;0.20;;;;;;;-1.62;49.23;99143.19;5002258;28;20056;-72
2023/03/01 10:57:05;;;;;;;0.20;0.20;;;;;;;-1.74;49.22;99143.00;5042623;28;20057;-71
2023/03/01 10:59:33;;;;;;;0.25;0.25;;;;;;;-1.87;49.35;99136.66;5022548;28;20042;-72
2023/03/01 11:02:15;;;;;;;0.20;0.20;;;;;;;-1.79;49.21;99129.41;5043619;28;20072;-72
2023/03/01 11:04:57;;;;;;;0.20;0.20;;;;;;;-1.46;48.21;99134.69;5005738;28;20053;-72
2023/03/01 11:07:23;;;;;;;0.30;0.30;;;;;;;-1.28;48.30;99135.84;5018577;28;20041;-69
2023/03/01 11:09:49;;;;;;;0.20;0.20;;;;;;;-1.23;47.89;99136.00;5041450;28;20057;-69
2023/03/01 11:12:17;;;;;;;0.28;0.28;;;;;;;-1.26;48.39;99131.06;5046045;28;20527;-69
2023/03/01 11:14:47;;;;;;;0.10;0.10;;;;;;;-1.16;48.42;99138.66;5027280;28;20049;-69
2023/03/01 11:17:18;;;;;;;0.20;0.20;;;;;;;-1.16;48.24;99149.41;5032075;28;20570;-69
2023/03/01 11:20:00;;;;;;;0.20;0.20;;;;;;;-1.29;48.21;99142.25;5046973;28;20407;-69
2023/03/01 11:22:27;;;;;;;0.20;0.20;;;;;;;-1.38;48.41;99140.81;5044200;28;20052;-69
2023/03/01 11:24:55;;;;;;;0.20;0.20;;;;;;;-0.92;47.38;99133.59;5049909;28;20504;-69
2023/03/01 11:27:28;;;;;;;0.25;0.25;;;;;;;-0.76;47.00;99133.09;5017236;28;20052;-69
2023/03/01 11:29:58;;;;;;;0.30;0.30;;;;;;;-0.45;46.22;99120.66;5008329;28;20045;-69
2023/03/01 11:32:30;;;;;;;1.10;1.10;;;;;;;1.30;43.36;99114.34;5020914;28;20123;-71
2023/03/01 11:35:02;;;;;;;1.85;0.70;;;;;;;4.32;37.91;99112.56;5013311;28;20425;-72
2023/03/01 11:37:36;;;;;;;0.47;0.47;;;;;;;6.29;34.72;99119.84;5041868;28;21214;-72
2023/03/01 11:40:15;;;;;;;1.10;1.10;;;;;;;7.01;32.35;99127.50;5025276;28;20041;-73
2023/03/01 11:43:06;;;;;;;0.30;0.30;;;;;;;6.16;32.28;99123.03;5019047;28;20096;-73